createdAt,value
2017-06-01T00:00:32.432Z,11.7
2017-06-01T00:01:44.967Z,11.56
2017-06-01T00:02:57.496Z,11.56
2017-06-01T00:04:09.695Z,11.6
2017-06-01T00:05:21.980Z,11.56
2017-06-01T00:06:34.213Z,11.58
2017-06-01T00:07:46.747Z,11.53
2017-06-01T00:08:59.276Z,11.55
2017-06-01T00:10:11.850Z,11.48
2017-06-01T00:11:24.418Z,11.52
2017-06-01T00:12:36.943Z,11.44
2017-06-01T00:13:49.483Z,11.48
2017-06-01T00:15:01.698Z,11.41
2017-06-01T00:16:14.228Z,11.37
2017-06-01T00:17:26.768Z,11.35
2017-06-01T00:18:39.322Z,11.38
2017-06-01T00:19:51.863Z,11.35
2017-06-01T00:21:04.178Z,11.33
2017-06-01T00:22:16.726Z,11.34
2017-06-01T00:23:28.652Z,11.22
2017-06-01T00:24:41.190Z,11.25
2017-06-01T00:25:53.402Z,11.25
2017-06-01T00:27:05.317Z,11.23
2017-06-01T00:28:17.836Z,11.13
2017-06-01T00:29:30.373Z,11.16
2017-06-01T00:30:42.927Z,11.1
2017-06-01T00:31:54.869Z,11.1
2017-06-01T00:33:07.413Z,11.12
2017-06-01T00:34:19.640Z,11.04
2017-06-01T00:35:32.188Z,11
2017-06-01T00:36:44.828Z,11.07
2017-06-01T00:37:57.372Z,11.07
2017-06-01T00:39:09.902Z,10.98
2017-06-01T00:40:22.145Z,11
2017-06-01T00:41:34.631Z,10.98
2017-06-01T00:42:46.565Z,11.01
2017-06-01T00:43:59.107Z,10.97
2017-06-01T00:45:11.323Z,10.98
2017-06-01T00:46:23.874Z,10.94
2017-06-01T00:47:36.396Z,10.95
2017-06-01T00:48:48.987Z,10.98
2017-06-01T00:50:01.530Z,10.98
2017-06-01T00:51:13.787Z,10.94
2017-06-01T00:52:26.029Z,10.92
2017-06-01T00:53:38.545Z,10.77
2017-06-01T00:54:50.799Z,10.8
2017-06-01T00:56:03.059Z,10.86
2017-06-01T00:57:15.590Z,10.79
2017-06-01T00:58:28.138Z,10.86
2017-06-01T00:59:40.674Z,10.89
2017-06-01T01:00:53.228Z,10.82
2017-06-01T01:02:05.470Z,10.8
2017-06-01T01:03:17.635Z,10.75
2017-06-01T01:04:30.180Z,10.76
2017-06-01T01:05:42.684Z,10.71
2017-06-01T01:06:55.228Z,10.76
2017-06-01T01:08:07.442Z,10.69
2017-06-01T01:09:19.388Z,10.76
2017-06-01T01:10:31.945Z,10.68
2017-06-01T01:11:44.480Z,10.71
2017-06-01T01:12:56.738Z,10.57
2017-06-01T01:14:08.957Z,10.59
2017-06-01T01:15:20.897Z,10.57
2017-06-01T01:16:33.100Z,10.57
2017-06-01T01:17:45.642Z,10.48
2017-06-01T01:18:58.180Z,10.43
2017-06-01T01:20:10.437Z,10.45
2017-06-01T01:21:22.680Z,10.48
2017-06-01T01:22:34.919Z,10.41
2017-06-01T01:23:47.450Z,10.45
2017-06-01T01:24:59.993Z,10.43
2017-06-01T01:26:12.189Z,10.31
2017-06-01T01:27:24.406Z,10.34
2017-06-01T01:28:36.609Z,10.39
2017-06-01T01:29:48.830Z,10.36
2017-06-01T01:31:01.398Z,10.27
2017-06-01T01:32:13.914Z,10.23
2017-06-01T01:33:25.557Z,10.24
2017-06-01T01:34:38.129Z,10.27
2017-06-01T01:35:50.625Z,10.18
2017-06-01T01:37:02.849Z,10.24
2017-06-01T01:38:15.099Z,10.15
2017-06-01T01:39:27.372Z,10.21
2017-06-01T01:40:39.896Z,10.17
2017-06-01T01:41:52.116Z,10.09
2017-06-01T01:43:04.632Z,10.13
2017-06-01T01:44:16.845Z,10.1
2017-06-01T01:45:29.388Z,10.09
2017-06-01T01:46:41.894Z,10.05
2017-06-01T01:47:54.421Z,10.15
2017-06-01T01:49:06.962Z,10.06
2017-06-01T01:50:19.503Z,10.02
2017-06-01T01:51:31.724Z,10.02
2017-06-01T01:52:43.949Z,9.97
2017-06-01T01:53:56.495Z,9.95
2017-06-01T01:55:09.020Z,9.92
2017-06-01T01:56:21.263Z,9.87
2017-06-01T01:57:33.491Z,9.91
2017-06-01T01:58:46.007Z,9.92
2017-06-01T01:59:58.553Z,9.9
2017-06-01T02:01:10.525Z,9.81
2017-06-01T02:02:22.473Z,9.82
2017-06-01T02:03:35.012Z,9.81
2017-06-01T02:04:47.555Z,9.74
2017-06-01T02:05:59.808Z,9.76
2017-06-01T02:07:11.743Z,9.67
2017-06-01T02:08:24.299Z,9.69
2017-06-01T02:09:36.837Z,9.63
2017-06-01T02:10:49.084Z,9.69
2017-06-01T02:12:01.334Z,9.63
2017-06-01T02:13:13.860Z,9.64
2017-06-01T02:14:26.108Z,9.64
2017-06-01T02:15:38.667Z,9.63
2017-06-01T02:16:51.217Z,9.45
2017-06-01T02:18:03.766Z,9.52
2017-06-01T02:19:16.261Z,9.45
2017-06-01T02:20:28.533Z,9.52
2017-06-01T02:21:41.073Z,9.49
2017-06-01T02:22:52.976Z,9.45
2017-06-01T02:24:05.521Z,9.47
2017-06-01T02:25:17.765Z,9.36
2017-06-01T02:26:29.977Z,9.33
2017-06-01T02:27:42.184Z,9.34
2017-06-01T02:28:54.412Z,9.29
2017-06-01T02:30:06.642Z,9.34
2017-06-01T02:31:18.874Z,9.29
2017-06-01T02:32:31.419Z,9.33
2017-06-01T02:33:43.660Z,9.29
2017-06-01T02:34:56.184Z,9.13
2017-06-01T02:36:08.402Z,9.16
2017-06-01T02:37:20.641Z,9.16
2017-06-01T02:38:32.890Z,9.18
2017-06-01T02:39:45.408Z,9.13
2017-06-01T02:40:57.957Z,9.11
2017-06-01T02:42:10.507Z,9.11
2017-06-01T02:43:23.045Z,9.18
2017-06-01T02:44:35.602Z,9.19
2017-06-01T02:45:48.152Z,9.12
2017-06-01T02:47:00.723Z,9.05
2017-06-01T02:48:13.028Z,9.08
2017-06-01T02:49:25.603Z,9.09
2017-06-01T02:50:38.103Z,9.02
2017-06-01T02:51:50.629Z,9.02
2017-06-01T02:53:03.165Z,8.99
2017-06-01T02:54:15.415Z,9.03
2017-06-01T02:55:27.940Z,8.95
2017-06-01T02:56:40.453Z,8.92
2017-06-01T02:57:52.996Z,8.99
2017-06-01T02:59:05.617Z,8.96
2017-06-01T03:00:17.564Z,8.97
2017-06-01T03:01:29.809Z,8.96
2017-06-01T03:02:42.590Z,8.9
2017-06-01T03:03:55.112Z,8.89
2017-06-01T03:05:07.657Z,8.84
2017-06-01T03:06:19.595Z,8.87
2017-06-01T03:07:32.117Z,8.9
2017-06-01T03:08:44.335Z,8.9
2017-06-01T03:09:56.582Z,8.87
2017-06-01T03:11:08.526Z,8.84
2017-06-01T03:12:20.783Z,8.81
2017-06-01T03:13:33.029Z,8.87
2017-06-01T03:14:45.268Z,8.77
2017-06-01T03:15:57.489Z,8.79
2017-06-01T03:17:10.017Z,8.87
2017-06-01T03:18:22.559Z,8.78
2017-06-01T03:19:35.158Z,8.89
2017-06-01T03:20:47.401Z,8.84
2017-06-01T03:21:59.643Z,8.89
2017-06-01T03:23:11.873Z,8.84
2017-06-01T03:24:24.435Z,8.79
2017-06-01T03:25:36.964Z,8.87
2017-06-01T03:26:49.498Z,8.79
2017-06-01T03:28:01.723Z,8.81
2017-06-01T03:29:14.247Z,8.77
2017-06-01T03:30:26.786Z,8.81
2017-06-01T03:31:38.735Z,8.81
2017-06-01T03:32:51.253Z,8.84
2017-06-01T03:34:03.762Z,8.79
2017-06-01T03:35:15.695Z,8.89
2017-06-01T03:36:28.219Z,8.81
2017-06-01T03:37:40.743Z,8.74
2017-06-01T03:38:52.958Z,8.86
2017-06-01T03:40:04.876Z,8.82
2017-06-01T03:41:17.074Z,8.87
2017-06-01T03:42:29.308Z,8.84
2017-06-01T03:43:41.823Z,8.79
2017-06-01T03:44:54.361Z,8.78
2017-06-01T03:46:06.884Z,8.77
2017-06-01T03:47:19.151Z,8.77
2017-06-01T03:48:31.685Z,8.84
2017-06-01T03:49:43.907Z,8.84
2017-06-01T03:50:56.171Z,8.87
2017-06-01T03:52:08.387Z,8.79
2017-06-01T03:53:20.920Z,8.87
2017-06-01T03:54:33.182Z,8.82
2017-06-01T03:55:45.405Z,8.87
2017-06-01T03:56:58.203Z,8.89
2017-06-01T03:58:10.720Z,8.82
2017-06-01T03:59:23.265Z,8.96
2017-06-01T04:00:35.541Z,8.96
2017-06-01T04:01:47.790Z,8.93
2017-06-01T04:03:00.351Z,8.93
2017-06-01T04:04:12.583Z,8.93
2017-06-01T04:05:24.554Z,8.95
2017-06-01T04:06:37.087Z,9.09
2017-06-01T04:07:49.887Z,9.02
2017-06-01T04:09:01.516Z,9.08
2017-06-01T04:10:13.918Z,9.12
2017-06-01T04:11:26.475Z,9.11
2017-06-01T04:12:39.054Z,9.13
2017-06-01T04:13:51.297Z,9.12
2017-06-01T04:15:03.788Z,9.13
2017-06-01T04:16:15.713Z,9.13
2017-06-01T04:17:28.230Z,9.16
2017-06-01T04:18:40.183Z,9.22
2017-06-01T04:19:52.719Z,9.27
2017-06-01T04:21:04.968Z,9.26
2017-06-01T04:22:17.493Z,9.33
2017-06-01T04:23:28.833Z,9.36
2017-06-01T04:24:41.388Z,9.36
2017-06-01T04:25:53.884Z,9.44
2017-06-01T04:27:05.819Z,9.34
2017-06-01T04:28:18.047Z,9.52
2017-06-01T04:29:29.664Z,9.47
2017-06-01T04:30:42.251Z,9.48
2017-06-01T04:31:54.785Z,9.49
2017-06-01T04:33:07.006Z,9.54
2017-06-01T04:34:19.556Z,9.54
2017-06-01T04:35:32.092Z,9.62
2017-06-01T04:36:44.624Z,9.62
2017-06-01T04:37:57.160Z,9.72
2017-06-01T04:39:08.803Z,9.69
2017-06-01T04:40:21.670Z,9.72
2017-06-01T04:41:34.222Z,9.74
2017-06-01T04:42:46.470Z,9.76
2017-06-01T04:43:58.998Z,9.76
2017-06-01T04:45:11.593Z,9.85
2017-06-01T04:46:23.213Z,9.85
2017-06-01T04:47:34.833Z,9.91
2017-06-01T04:48:47.053Z,9.88
2017-06-01T04:49:58.998Z,9.88
2017-06-01T04:51:11.522Z,9.99
2017-06-01T04:52:23.441Z,9.95
2017-06-01T04:53:35.686Z,10
2017-06-01T04:54:47.961Z,10.03
2017-06-01T04:56:00.523Z,10.12
2017-06-01T04:57:13.045Z,10.1
2017-06-01T04:58:25.569Z,10.12
2017-06-01T04:59:37.520Z,10.1
2017-06-01T05:00:50.083Z,10.21
2017-06-01T05:02:02.900Z,10.18
2017-06-01T05:03:15.445Z,10.23
2017-06-01T05:04:27.379Z,10.25
2017-06-01T05:05:39.899Z,10.31
2017-06-01T05:06:52.445Z,10.31
2017-06-01T05:08:04.679Z,10.36
2017-06-01T05:09:16.905Z,10.38
2017-06-01T05:10:29.121Z,10.34
2017-06-01T05:11:41.644Z,10.27
2017-06-01T05:12:53.581Z,10.41
2017-06-01T05:14:05.816Z,10.43
2017-06-01T05:15:17.433Z,10.48
2017-06-01T05:16:29.653Z,10.53
2017-06-01T05:17:41.584Z,10.57
2017-06-01T05:18:53.844Z,10.62
2017-06-01T05:20:06.391Z,10.65
2017-06-01T05:21:18.315Z,10.65
2017-06-01T05:22:30.243Z,10.76
2017-06-01T05:23:42.459Z,10.83
2017-06-01T05:24:54.684Z,10.92
2017-06-01T05:26:06.620Z,11.15
2017-06-01T05:27:18.869Z,11.37
2017-06-01T05:28:31.072Z,11.53
2017-06-01T05:29:43.315Z,11.76
2017-06-01T05:30:55.581Z,11.95
2017-06-01T05:32:07.812Z,11.97
2017-06-01T05:33:20.031Z,12.12
2017-06-01T05:34:32.577Z,12.15
2017-06-01T05:35:45.104Z,12.03
2017-06-01T05:36:57.342Z,12.14
2017-06-01T05:38:09.241Z,12.07
2017-06-01T05:39:21.202Z,12.1
2017-06-01T05:40:33.405Z,12.07
2017-06-01T05:41:45.970Z,12.11
2017-06-01T05:42:58.498Z,12.02
2017-06-01T05:44:10.718Z,11.95
2017-06-01T05:45:23.582Z,11.97
2017-06-01T05:46:36.108Z,11.97
2017-06-01T05:47:48.674Z,12.03
2017-06-01T05:49:00.582Z,11.97
2017-06-01T05:50:12.827Z,11.96
2017-06-01T05:51:25.362Z,11.97
2017-06-01T05:52:37.579Z,12
2017-06-01T05:53:50.101Z,12.02
2017-06-01T05:55:02.631Z,11.93
2017-06-01T05:56:14.892Z,12.05
2017-06-01T05:57:27.422Z,12
2017-06-01T05:58:39.659Z,11.95
2017-06-01T05:59:51.919Z,12.02
2017-06-01T06:01:04.159Z,11.99
2017-06-01T06:02:16.397Z,11.99
2017-06-01T06:03:28.944Z,11.97
2017-06-01T06:04:41.188Z,11.95
2017-06-01T06:05:53.722Z,11.95
2017-06-01T06:07:06.241Z,11.99
2017-06-01T06:08:18.776Z,12.1
2017-06-01T06:09:31.026Z,12.07
2017-06-01T06:10:43.571Z,12.02
2017-06-01T06:11:55.771Z,12.12
2017-06-01T06:13:08.317Z,12.17
2017-06-01T06:14:20.541Z,12.25
2017-06-01T06:15:32.764Z,12.4
2017-06-01T06:16:45.297Z,12.51
2017-06-01T06:17:57.827Z,12.55
2017-06-01T06:19:10.415Z,12.75
2017-06-01T06:20:22.651Z,12.78
2017-06-01T06:21:34.589Z,13.09
2017-06-01T06:22:46.577Z,13.3
2017-06-01T06:23:58.826Z,13.67
2017-06-01T06:25:11.053Z,13.86
2017-06-01T06:26:23.590Z,14.15
2017-06-01T06:27:35.210Z,14.33
2017-06-01T06:28:47.764Z,14.53
2017-06-01T06:30:00.286Z,14.62
2017-06-01T06:31:11.926Z,14.61
2017-06-01T06:32:24.170Z,14.68
2017-06-01T06:33:36.715Z,14.78
2017-06-01T06:34:48.636Z,14.78
2017-06-01T06:36:00.899Z,14.86
2017-06-01T06:37:13.106Z,15
2017-06-01T06:38:25.660Z,15.23
2017-06-01T06:39:37.928Z,15.45
2017-06-01T06:40:50.498Z,15.66
2017-06-01T06:42:02.741Z,15.9
2017-06-01T06:43:14.664Z,16.18
2017-06-01T06:44:26.311Z,16.44
2017-06-01T06:45:38.829Z,16.76
2017-06-01T06:46:51.045Z,17.04
2017-06-01T06:48:03.567Z,17.37
2017-06-01T06:49:15.820Z,17.6
2017-06-01T06:50:27.761Z,17.71
2017-06-01T06:51:39.680Z,17.9
2017-06-01T06:52:52.201Z,18.19
2017-06-01T06:54:04.429Z,18.43
2017-06-01T06:55:16.679Z,18.68
2017-06-01T06:56:29.223Z,18.97
2017-06-01T06:57:41.462Z,19.15
2017-06-01T06:58:53.729Z,19.34
2017-06-01T07:00:05.680Z,19.49
2017-06-01T07:01:18.173Z,19.7
2017-06-01T07:02:30.709Z,19.72
2017-06-01T07:03:42.943Z,19.81
2017-06-01T07:04:55.218Z,20.03
2017-06-01T07:06:07.737Z,20.19
2017-06-01T07:07:19.651Z,20.37
2017-06-01T07:08:31.901Z,20.48
2017-06-01T07:09:43.809Z,20.68
2017-06-01T07:10:56.021Z,20.77
2017-06-01T07:12:08.560Z,20.74
2017-06-01T07:13:20.806Z,20.9
2017-06-01T07:14:33.355Z,20.96
2017-06-01T07:15:45.580Z,21.13
2017-06-01T07:16:57.805Z,21.25
2017-06-01T07:18:09.740Z,21.45
2017-06-01T07:19:21.690Z,21.65
2017-06-01T07:20:33.359Z,21.65
2017-06-01T07:21:44.978Z,21.62
2017-06-01T07:22:57.532Z,21.75
2017-06-01T07:24:09.726Z,21.94
2017-06-01T07:25:21.673Z,21.94
2017-06-01T07:26:33.615Z,21.96
2017-06-01T07:27:46.183Z,22.08
2017-06-01T07:28:58.430Z,22.23
2017-06-01T07:30:10.378Z,22.25
2017-06-01T07:31:22.945Z,22.37
2017-06-01T07:32:35.519Z,22.52
2017-06-01T07:33:47.762Z,22.58
2017-06-01T07:35:00.318Z,22.78
2017-06-01T07:36:12.861Z,22.74
2017-06-01T07:37:25.409Z,22.86
2017-06-01T07:38:37.071Z,23.1
2017-06-01T07:39:49.346Z,23.14
2017-06-01T07:41:01.612Z,23.13
2017-06-01T07:42:13.884Z,23.26
2017-06-01T07:43:26.131Z,23.33
2017-06-01T07:44:38.075Z,23.45
2017-06-01T07:45:50.021Z,23.48
2017-06-01T07:47:01.970Z,23.44
2017-06-01T07:48:14.516Z,23.63
2017-06-01T07:49:26.770Z,23.73
2017-06-01T07:50:38.733Z,23.66
2017-06-01T07:51:50.975Z,23.64
2017-06-01T07:53:03.500Z,23.63
2017-06-01T07:54:15.750Z,23.54
2017-06-01T07:55:28.017Z,23.52
2017-06-01T07:56:40.587Z,23.52
2017-06-01T07:57:52.580Z,23.62
2017-06-01T07:59:04.208Z,23.67
2017-06-01T08:00:16.433Z,23.74
2017-06-01T08:01:28.096Z,23.81
2017-06-01T08:02:40.667Z,23.94
2017-06-01T08:03:53.220Z,24.01
2017-06-01T08:05:05.484Z,24.24
2017-06-01T08:06:17.727Z,24.13
2017-06-01T08:07:29.686Z,23.95
2017-06-01T08:08:41.950Z,24.04
2017-06-01T08:09:53.614Z,24.16
2017-06-01T08:11:06.168Z,24.25
2017-06-01T08:12:18.716Z,24.22
2017-06-01T08:13:30.985Z,24.38
2017-06-01T08:14:42.626Z,24.43
2017-06-01T08:15:54.282Z,24.47
2017-06-01T08:17:06.551Z,24.43
2017-06-01T08:18:18.839Z,24.62
2017-06-01T08:19:31.080Z,24.56
2017-06-01T08:20:43.356Z,24.61
2017-06-01T08:21:55.927Z,24.62
2017-06-01T08:23:08.181Z,24.47
2017-06-01T08:24:20.741Z,24.48
2017-06-01T08:25:32.999Z,24.53
2017-06-01T08:26:45.264Z,24.56
2017-06-01T08:27:57.839Z,24.78
2017-06-01T08:29:10.127Z,24.74
2017-06-01T08:30:21.795Z,24.99
2017-06-01T08:31:34.416Z,25
2017-06-01T08:32:46.662Z,25.16
2017-06-01T08:33:58.912Z,25.21
2017-06-01T08:35:11.466Z,25.16
2017-06-01T08:36:24.000Z,25.06
2017-06-01T08:37:36.546Z,25.09
2017-06-01T08:38:48.492Z,25
2017-06-01T08:40:01.041Z,25.06
2017-06-01T08:41:13.293Z,24.94
2017-06-01T08:42:25.514Z,24.99
2017-06-01T08:43:37.160Z,25
2017-06-01T08:44:49.696Z,25.07
2017-06-01T08:46:01.950Z,25.21
2017-06-01T08:47:14.487Z,25.25
2017-06-01T08:48:27.066Z,25.31
2017-06-01T08:49:39.630Z,25.46
2017-06-01T08:50:52.185Z,25.62
2017-06-01T08:52:04.149Z,25.77
2017-06-01T08:53:16.100Z,25.74
2017-06-01T08:54:27.467Z,25.71
2017-06-01T08:55:39.714Z,25.7
2017-06-01T08:56:52.290Z,25.62
2017-06-01T08:58:04.551Z,25.8
2017-06-01T08:59:16.811Z,25.78
2017-06-01T09:00:29.396Z,25.71
2017-06-01T09:01:41.947Z,25.74
2017-06-01T09:02:54.196Z,25.81
2017-06-01T09:04:06.466Z,25.74
2017-06-01T09:05:19.033Z,25.88
2017-06-01T09:06:30.981Z,25.89
2017-06-01T09:07:42.919Z,25.91
2017-06-01T09:08:55.196Z,25.98
2017-06-01T09:10:07.451Z,25.88
2017-06-01T09:11:19.114Z,25.76
2017-06-01T09:12:31.685Z,25.67
2017-06-01T09:13:43.651Z,25.62
2017-06-01T09:14:55.600Z,25.61
2017-06-01T09:16:07.264Z,25.62
2017-06-01T09:17:19.821Z,25.59
2017-06-01T09:18:32.081Z,25.7
2017-06-01T09:19:44.630Z,25.66
2017-06-01T09:20:56.582Z,25.77
2017-06-01T09:22:08.523Z,25.91
2017-06-01T09:23:20.777Z,25.98
2017-06-01T09:24:33.019Z,25.95
2017-06-01T09:25:45.289Z,25.98
2017-06-01T09:26:57.535Z,26.07
2017-06-01T09:28:09.199Z,26.24
2017-06-01T09:29:21.452Z,26.36
2017-06-01T09:30:33.127Z,26.39
2017-06-01T09:31:45.723Z,26.49
2017-06-01T09:32:57.687Z,26.53
2017-06-01T09:34:09.637Z,26.56
2017-06-01T09:35:22.183Z,26.55
2017-06-01T09:36:34.437Z,26.64
2017-06-01T09:37:46.982Z,26.79
2017-06-01T09:38:59.276Z,26.82
2017-06-01T09:40:11.244Z,26.85
2017-06-01T09:41:23.490Z,26.82
2017-06-01T09:42:35.753Z,26.93
2017-06-01T09:43:48.307Z,27.05
2017-06-01T09:45:00.875Z,27.04
2017-06-01T09:46:13.441Z,26.96
2017-06-01T09:47:26.021Z,26.98
2017-06-01T09:48:37.668Z,27.01
2017-06-01T09:49:50.213Z,27
2017-06-01T09:51:02.774Z,27.08
2017-06-01T09:52:14.750Z,27.26
2017-06-01T09:53:27.021Z,27.41
2017-06-01T09:54:39.284Z,27.55
2017-06-01T09:55:51.516Z,27.72
2017-06-01T09:57:03.838Z,27.81
2017-06-01T09:58:15.801Z,27.97
2017-06-01T09:59:28.075Z,28.09
2017-06-01T10:00:40.622Z,28.16
2017-06-01T10:01:52.892Z,28.43
2017-06-01T10:03:04.813Z,28.57
2017-06-01T10:04:16.776Z,28.7
2017-06-01T10:05:29.335Z,28.59
2017-06-01T10:06:41.895Z,28.71
2017-06-01T10:07:53.551Z,28.8
2017-06-01T10:09:05.522Z,28.92
2017-06-01T10:10:17.806Z,28.92
2017-06-01T10:11:29.764Z,28.83
2017-06-01T10:12:42.334Z,28.77
2017-06-01T10:13:53.998Z,28.97
2017-06-01T10:15:06.573Z,29.09
2017-06-01T10:16:18.523Z,29.21
2017-06-01T10:17:31.082Z,29.37
2017-06-01T10:18:43.364Z,29.52
2017-06-01T10:19:55.936Z,29.61
2017-06-01T10:21:07.603Z,29.86
2017-06-01T10:22:18.925Z,30.02
2017-06-01T10:23:31.487Z,30.2
2017-06-01T10:24:44.065Z,30.35
2017-06-01T10:25:56.616Z,30.54
2017-06-01T10:27:07.958Z,30.62
2017-06-01T10:28:20.481Z,30.71
2017-06-01T10:29:32.747Z,30.7
2017-06-01T10:30:45.015Z,30.83
2017-06-01T10:31:56.965Z,30.88
2017-06-01T10:33:09.212Z,30.89
2017-06-01T10:34:21.759Z,30.83
2017-06-01T10:35:33.421Z,30.73
2017-06-01T10:36:45.678Z,30.81
2017-06-01T10:37:57.650Z,30.62
2017-06-01T10:39:09.884Z,30.61
2017-06-01T10:40:22.117Z,30.71
2017-06-01T10:41:33.787Z,30.92
2017-06-01T10:42:46.371Z,31.14
2017-06-01T10:43:58.929Z,31.15
2017-06-01T10:45:11.173Z,31.39
2017-06-01T10:46:23.119Z,31.39
2017-06-01T10:47:34.758Z,31.52
2017-06-01T10:48:46.708Z,31.69
2017-06-01T10:49:59.272Z,31.82
2017-06-01T10:51:10.943Z,31.86
2017-06-01T10:52:22.989Z,31.87
2017-06-01T10:53:35.245Z,31.7
2017-06-01T10:54:46.893Z,31.85
2017-06-01T10:55:59.155Z,32.04
2017-06-01T10:57:11.729Z,32.2
2017-06-01T10:58:23.693Z,32.35
2017-06-01T10:59:35.669Z,32.45
2017-06-01T11:00:48.238Z,32.51
2017-06-01T11:02:00.493Z,32.57
2017-06-01T11:03:12.777Z,32.49
2017-06-01T11:04:24.726Z,32.66
2017-06-01T11:05:37.306Z,32.79
2017-06-01T11:06:49.553Z,32.71
2017-06-01T11:08:01.818Z,32.85
2017-06-01T11:09:14.368Z,33.09
2017-06-01T11:10:26.639Z,33.17
2017-06-01T11:11:38.899Z,33.42
2017-06-01T11:12:51.177Z,33.35
2017-06-01T11:14:03.419Z,33.47
2017-06-01T11:15:15.986Z,33.75
2017-06-01T11:16:28.219Z,33.73
2017-06-01T11:17:40.781Z,33.87
2017-06-01T11:18:53.053Z,34.03
2017-06-01T11:20:05.609Z,34.06
2017-06-01T11:21:17.578Z,34.22
2017-06-01T11:22:29.869Z,34.26
2017-06-01T11:23:42.435Z,34.31
2017-06-01T11:24:54.690Z,34.07
2017-06-01T11:26:07.277Z,34.1
2017-06-01T11:27:19.232Z,33.98
2017-06-01T11:28:31.524Z,34.13
2017-06-01T11:29:43.495Z,34.18
2017-06-01T11:30:56.020Z,34.07
2017-06-01T11:32:08.605Z,33.95
2017-06-01T11:33:20.551Z,33.79
2017-06-01T11:34:33.104Z,33.84
2017-06-01T11:35:45.641Z,33.69
2017-06-01T11:36:57.287Z,33.84
2017-06-01T11:38:09.845Z,34.07
2017-06-01T11:39:21.813Z,33.92
2017-06-01T11:40:33.776Z,33.89
2017-06-01T11:41:45.704Z,33.85
2017-06-01T11:42:58.292Z,33.89
2017-06-01T11:44:10.542Z,34.11
2017-06-01T11:45:23.134Z,34.1
2017-06-01T11:46:35.106Z,34.16
2017-06-01T11:47:47.358Z,34.22
2017-06-01T11:48:59.601Z,34.1
2017-06-01T11:50:11.551Z,34.07
2017-06-01T11:51:24.101Z,33.95
2017-06-01T11:52:36.368Z,33.92
2017-06-01T11:53:48.931Z,34.13
2017-06-01T11:55:01.187Z,34.29
2017-06-01T11:56:13.461Z,34.37
2017-06-01T11:57:25.446Z,34.44
2017-06-01T11:58:37.722Z,34.41
2017-06-01T11:59:49.972Z,34.4
2017-06-01T12:01:02.231Z,34.6
2017-06-01T12:02:13.913Z,34.7
2017-06-01T12:03:26.198Z,34.63
2017-06-01T12:04:38.756Z,34.71
2017-06-01T12:05:50.701Z,34.71
2017-06-01T12:07:02.986Z,34.82
2017-06-01T12:08:14.369Z,34.88
2017-06-01T12:09:26.942Z,35.03
2017-06-01T12:10:39.199Z,35.01
2017-06-01T12:11:51.777Z,34.98
2017-06-01T12:13:04.044Z,35.19
2017-06-01T12:14:16.311Z,35.27
2017-06-01T12:15:28.287Z,35.16
2017-06-01T12:16:40.254Z,34.97
2017-06-01T12:17:52.832Z,34.83
2017-06-01T12:19:05.384Z,34.76
2017-06-01T12:20:17.641Z,34.59
2017-06-01T12:21:29.912Z,34.5
2017-06-01T12:22:42.162Z,34.5
2017-06-01T12:23:54.715Z,34.48
2017-06-01T12:25:06.686Z,34.5
2017-06-01T12:26:18.978Z,34.55
2017-06-01T12:27:31.552Z,34.55
2017-06-01T12:28:43.523Z,34.6
2017-06-01T12:29:55.786Z,34.53
2017-06-01T12:31:07.734Z,34.55
2017-06-01T12:32:19.408Z,34.55
2017-06-01T12:33:31.933Z,34.55
2017-06-01T12:34:43.895Z,34.59
2017-06-01T12:35:56.171Z,34.43
2017-06-01T12:37:08.435Z,33.98
2017-06-01T12:38:20.712Z,33.79
2017-06-01T12:39:32.976Z,33.77
2017-06-01T12:40:45.234Z,33.81
2017-06-01T12:41:57.792Z,33.82
2017-06-01T12:43:10.071Z,33.81
2017-06-01T12:44:22.338Z,33.88
2017-06-01T12:45:34.909Z,33.92
2017-06-01T12:46:47.481Z,33.98
2017-06-01T12:47:59.483Z,34.04
2017-06-01T12:49:11.144Z,33.94
2017-06-01T12:50:23.689Z,33.76
2017-06-01T12:51:36.236Z,33.73
2017-06-01T12:52:48.791Z,33.69
2017-06-01T12:54:00.753Z,33.54
2017-06-01T12:55:13.324Z,33.54
2017-06-01T12:56:25.878Z,33.54
2017-06-01T12:57:38.427Z,33.5
2017-06-01T12:58:50.923Z,33.42
2017-06-01T13:00:03.182Z,33.54
2017-06-01T13:01:14.237Z,33.42
2017-06-01T13:02:26.486Z,33.23
2017-06-01T13:03:38.755Z,33.16
2017-06-01T13:04:50.991Z,33.01
2017-06-01T13:06:03.549Z,33.01
2017-06-01T13:07:15.216Z,33.01
2017-06-01T13:08:26.857Z,33.03
2017-06-01T13:09:38.787Z,33.05
2017-06-01T13:10:51.077Z,33.12
2017-06-01T13:12:03.051Z,33.16
2017-06-01T13:13:15.637Z,33.32
2017-06-01T13:14:28.190Z,33.53
2017-06-01T13:15:40.707Z,33.57
2017-06-01T13:16:53.261Z,33.55
2017-06-01T13:18:05.799Z,33.53
2017-06-01T13:19:18.349Z,33.55
2017-06-01T13:20:30.849Z,33.4
2017-06-01T13:21:43.093Z,33.13
2017-06-01T13:22:55.041Z,33
2017-06-01T13:24:07.310Z,33.12
2017-06-01T13:25:19.571Z,33.05
2017-06-01T13:26:31.241Z,33.01
2017-06-01T13:27:43.517Z,33.08
2017-06-01T13:28:56.035Z,33.1
2017-06-01T13:30:08.305Z,33.09
2017-06-01T13:31:20.536Z,33.05
2017-06-01T13:32:32.779Z,33.13
2017-06-01T13:33:44.717Z,33.23
2017-06-01T13:34:56.971Z,33.15
2017-06-01T13:36:08.913Z,33.36
2017-06-01T13:37:20.881Z,33.33
2017-06-01T13:38:33.427Z,33.44
2017-06-01T13:39:45.973Z,33.45
2017-06-01T13:40:58.551Z,33.55
2017-06-01T13:42:10.222Z,33.53
2017-06-01T13:43:22.760Z,33.6
2017-06-01T13:44:35.293Z,33.6
2017-06-01T13:45:47.552Z,33.54
2017-06-01T13:46:59.810Z,33.39
2017-06-01T13:48:12.057Z,33.4
2017-06-01T13:49:24.047Z,33.36
2017-06-01T13:50:36.337Z,33.33
2017-06-01T13:51:48.943Z,33.23
2017-06-01T13:53:00.881Z,33.03
2017-06-01T13:54:12.547Z,32.85
2017-06-01T13:55:24.526Z,32.79
2017-06-01T13:56:37.077Z,32.51
2017-06-01T13:57:49.643Z,32.37
2017-06-01T13:59:01.914Z,32.19
2017-06-01T14:00:14.483Z,32.02
2017-06-01T14:01:27.056Z,31.74
2017-06-01T14:02:39.322Z,31.63
2017-06-01T14:03:51.269Z,31.54
2017-06-01T14:05:03.796Z,31.54
2017-06-01T14:06:15.166Z,31.47
2017-06-01T14:07:27.705Z,31.42
2017-06-01T14:08:40.250Z,31.44
2017-06-01T14:09:52.230Z,31.42
2017-06-01T14:11:04.465Z,31.41
2017-06-01T14:12:17.015Z,31.42
2017-06-01T14:13:29.549Z,31.28
2017-06-01T14:14:41.808Z,31.2
2017-06-01T14:15:54.061Z,30.98
2017-06-01T14:17:06.320Z,30.76
2017-06-01T14:18:17.966Z,30.77
2017-06-01T14:19:29.941Z,30.74
2017-06-01T14:20:42.192Z,30.77
2017-06-01T14:21:53.218Z,30.85
2017-06-01T14:23:05.775Z,30.91
2017-06-01T14:24:17.447Z,30.95
2017-06-01T14:25:30.030Z,30.93
2017-06-01T14:26:42.299Z,30.92
2017-06-01T14:27:53.645Z,30.76
2017-06-01T14:29:05.919Z,30.7
2017-06-01T14:30:18.172Z,30.58
2017-06-01T14:31:30.152Z,30.63
2017-06-01T14:32:42.679Z,30.65
2017-06-01T14:33:55.221Z,30.38
2017-06-01T14:35:07.171Z,30.29
2017-06-01T14:36:19.734Z,30.05
2017-06-01T14:37:31.686Z,29.92
2017-06-01T14:38:44.232Z,29.84
2017-06-01T14:39:55.900Z,29.77
2017-06-01T14:41:08.147Z,29.84
2017-06-01T14:42:20.410Z,29.67
2017-06-01T14:43:31.781Z,29.64
2017-06-01T14:44:44.030Z,29.58
2017-06-01T14:45:56.301Z,29.5
2017-06-01T14:47:07.969Z,29.28
2017-06-01T14:48:19.940Z,28.87
2017-06-01T14:49:31.885Z,28.64
2017-06-01T14:50:44.182Z,28.4
2017-06-01T14:51:56.435Z,28.19
2017-06-01T14:53:08.685Z,27.83
2017-06-01T14:54:20.348Z,27.48
2017-06-01T14:55:32.901Z,27.25
2017-06-01T14:56:45.565Z,26.93
2017-06-01T14:57:58.085Z,26.56
2017-06-01T14:59:10.363Z,26.31
2017-06-01T15:00:22.328Z,26.08
2017-06-01T15:01:34.854Z,25.88
2017-06-01T15:02:47.419Z,25.67
2017-06-01T15:03:59.973Z,25.52
2017-06-01T15:05:11.920Z,25.34
2017-06-01T15:06:24.158Z,25.19
2017-06-01T15:07:36.704Z,25
2017-06-01T15:08:48.053Z,24.97
2017-06-01T15:10:00.307Z,24.61
2017-06-01T15:11:11.948Z,24.69
2017-06-01T15:12:23.883Z,24.51
2017-06-01T15:13:35.817Z,24.36
2017-06-01T15:14:48.358Z,24.24
2017-06-01T15:16:00.875Z,24.21
2017-06-01T15:17:13.180Z,23.81
2017-06-01T15:18:25.701Z,23.84
2017-06-01T15:19:37.369Z,23.67
2017-06-01T15:20:49.616Z,23.55
2017-06-01T15:22:01.863Z,23.47
2017-06-01T15:23:14.421Z,23.33
2017-06-01T15:24:26.954Z,23.29
2017-06-01T15:25:39.496Z,23.11
2017-06-01T15:26:51.737Z,23.13
2017-06-01T15:28:03.969Z,22.99
2017-06-01T15:29:16.217Z,23.01
2017-06-01T15:30:28.098Z,23.02
2017-06-01T15:31:40.651Z,22.99
2017-06-01T15:32:53.189Z,22.93
2017-06-01T15:34:05.736Z,22.98
2017-06-01T15:35:17.970Z,22.96
2017-06-01T15:36:29.913Z,22.98
2017-06-01T15:37:42.451Z,22.98
2017-06-01T15:38:55.010Z,22.96
2017-06-01T15:40:07.577Z,22.96